WIOOWIDD

Guest
Details From WIOO - Pontianak Supadio
To WIDD - Batam Hang Nadim
Flight Number -
Tags Generated
Created
Modified
Stats Distance 327 nm / 605 km
Max Altitude 0 ft / 0 m
Waypoints 3
Social Downloads 1
Likes 0
Share VATSIM

Download

Looking for another format? Having issues loading an existing format? Contact us
Advertisement - Login to hide

Notes

Generated

Route

WIOO SJ025 WIDD

ID Type Via Altitude Latitude Longitude Leg Dist Tot Dist Heading (true) Name
O WIOO APT - 0 ft / 0 m -0.14132˚ 109.40006˚ - 0 nm - -
SJ025 FIX - 0 ft / 0 m 1.04242˚ 104.22853˚ 318 nm 318 nm 283° / 283° -
O WIDD APT - 0 ft / 0 m 1.10745˚ 104.10661˚ 8 nm 326 nm 298° / 298° -

Altitude Profile

Advertisement - Login to hide

Weather


0- 5 10 15 20 25 30 35+ Temperature / ° C

Clouds and Precipitation
Forecast for 2017-12-13 00:00 UTC. Updated an hour ago

Ground ~20,000 ft ~40,000 ft Winds

WIOO

Details ICAO WIOO (PNK)
Name Pontianak Supadio
Region Indonesia
Timezone Asia/Pontianak (UTC+7.0)
Stats Elevation 10 ft / 3 m (AMSL)
Location -0.150708° 109.403890°
Runways 1
Magnetic Variation 0.499° E

METAR

WIOO 122330Z 00000KT 8000 SCT012 23/22 Q1011 NOSIG

Decode

TAF

Not found

Departure Runways

ID Width Length Bearing (true) Bearing (mag) Surface Threshold Offset Overrun Length
15 98 ft / 30 m 7,400 ft / 2,256 m 157.81° 157.31° Asphalt 0 ft / 0 m 213 ft / 65 m
33 98 ft / 30 m 7,400 ft / 2,256 m 337.81° 337.31° Asphalt 0 ft / 0 m 197 ft / 60 m

WIDD

Details ICAO WIDD (BTH)
Name Batam Hang Nadim
Region Indonesia
Timezone Asia/Jakarta (UTC+7.0)
Stats Elevation 126 ft / 38 m (AMSL)
Location 1.121028° 104.118754°
Runways 1
Magnetic Variation 0.248° E

METAR

WIDD 122330Z 00000KT 7000 -RA SCT014 25/23 Q1013

Decode

TAF

TAF WIDD 122300Z 1300/1324 36008KT 9000 SCT014 TEMPO 1305/1309 6000 -TSRA FEW015CB

Decode

Destination Runways

ID Width Length Bearing (true) Bearing (mag) Surface Threshold Offset Overrun Length
04 148 ft / 45 m 13,295 ft / 4,052 m 41.80° 41.55° Asphalt 0 ft / 0 m 200 ft / 61 m
22 148 ft / 45 m 13,295 ft / 4,052 m 221.80° 221.55° Asphalt 0 ft / 0 m 200 ft / 61 m

Approach Navaids

Runway Type Ident Frequency Range Bearing (true) Bearing (mag) Slope Elevation
04 Localiser IBTM 110.10 MHz 18 nm / 33 km 41.79° 41.54° - 69 ft / 21 m (AMSL)
04 Glidescope IBTM 110.10 MHz 10 nm / 19 km 41.80° 41.55° 3.00° 125 ft / 38 m (AMSL)
04 DME IBTM 110.10 MHz 18 nm / 33 km - - - 69 ft / 21 m (AMSL)

Popular Alternatives